Time;durP1;ratioP1;P1;durP2;ratioP2;P2;SDS_P1;SDS_P2;PMS_P1;PMS_P2;Temp;Humidity;BMP_temperature;BMP_pressure;BME280_temperature;BME280_humidity;BME280_pressure;Samples;Min_cycle;Max_cycle;Signal;HPM_P1;HPM_P2
2022/10/28 00:01:15;;;;;;;23.25;14.27;;;;;;;12.82;100.00;101837.47;12487656;23;20509;-88
2022/10/28 00:06:20;;;;;;;28.30;15.57;;;;;;;11.52;100.00;101665.75;12467953;23;20002;-88
2022/10/28 00:11:43;;;;;;;22.48;13.73;;;;;;;10.54;100.00;101513.84;12457991;23;20093;-88
2022/10/28 00:16:46;;;;;;;24.90;14.70;;;;;;;10.84;100.00;101548.72;12369813;23;20018;-88
2022/10/28 00:21:47;;;;;;;25.88;15.98;;;;;;;11.96;100.00;101734.31;12472581;23;20010;-88
2022/10/28 00:26:47;;;;;;;23.23;14.48;;;;;;;11.51;100.00;101634.59;12505141;23;20006;-94
2022/10/28 00:31:51;;;;;;;27.15;16.73;;;;;;;12.70;100.00;101881.72;12523058;23;20409;-94
2022/10/28 00:36:52;;;;;;;41.35;17.80;;;;;;;11.41;100.00;101666.56;12452463;23;19997;-94
2022/10/28 00:41:57;;;;;;;30.38;17.42;;;;;;;10.97;100.00;101567.72;12486435;23;20014;-93
2022/10/28 00:47:01;;;;;;;31.90;19.13;;;;;;;12.03;100.00;101723.97;12455944;23;20007;-88
2022/10/28 00:52:03;;;;;;;34.72;21.20;;;;;;;12.25;100.00;101718.66;12453386;23;20023;-88
2022/10/28 00:57:05;;;;;;;34.90;20.95;;;;;;;11.82;100.00;101632.44;12498686;23;20033;-88
2022/10/28 01:02:06;;;;;;;37.97;20.58;;;;;;;10.98;100.00;101508.81;12487309;23;20401;-88
2022/10/28 01:07:06;;;;;;;39.05;20.52;;;;;;;11.42;100.00;101531.25;12411106;23;20081;-88
2022/10/28 01:12:11;;;;;;;35.53;18.73;;;;;;;11.84;100.00;101593.59;12506125;23;20385;-93
2022/10/28 01:17:40;;;;;;;34.10;19.65;;;;;;;13.22;100.00;101770.19;12467392;23;20230;-88
2022/10/28 01:22:46;;;;;;;39.15;20.77;;;;;;;11.72;100.00;101568.81;12576479;23;20006;-88
2022/10/28 01:28:20;;;;;;;45.17;19.95;;;;;;;13.31;100.00;101801.06;12490907;23;20029;-88
2022/10/28 01:33:26;;;;;;;34.83;18.63;;;;;;;12.57;100.00;101669.28;12432490;23;20025;-88
2022/10/28 01:38:31;;;;;;;36.53;17.95;;;;;;;12.88;100.00;101712.13;12447075;23;20062;-88
2022/10/28 01:44:01;;;;;;;40.72;20.33;;;;;;;12.87;100.00;101709.59;12549403;23;20018;-88
2022/10/28 01:49:12;;;;;;;36.53;19.17;;;;;;;12.80;100.00;101766.97;12461790;23;20017;-88
2022/10/28 01:54:18;;;;;;;38.25;18.35;;;;;;;11.68;100.00;101598.81;12546408;23;20045;-88
2022/10/28 01:59:24;;;;;;;32.42;18.85;;;;;;;11.60;100.00;101588.16;12428806;23;20014;-88
2022/10/28 02:04:24;;;;;;;44.13;18.17;;;;;;;10.40;100.00;101410.56;12528201;23;20050;-88
2022/10/28 02:09:43;;;;;;;38.63;19.20;;;;;;;11.56;100.00;101575.09;12529155;23;20026;-94
2022/10/28 02:15:03;;;;;;;35.22;20.10;;;;;;;11.15;100.00;101568.69;12539324;23;20007;-94
2022/10/28 02:20:09;;;;;;;37.92;19.42;;;;;;;11.16;100.00;101570.38;12557696;23;20017;-93
2022/10/28 02:25:22;;;;;;;37.95;20.15;;;;;;;10.90;100.00;101575.31;12533198;23;20330;-94
2022/10/28 02:30:29;;;;;;;37.85;20.75;;;;;;;10.56;100.00;101508.94;12467466;23;20023;-93
2022/10/28 02:35:36;;;;;;;41.03;20.88;;;;;;;10.46;100.00;101523.31;12530500;23;20007;-93
2022/10/28 02:40:37;;;;;;;42.35;20.98;;;;;;;10.75;100.00;101581.28;12521480;23;20042;-94
2022/10/28 02:45:39;;;;;;;40.63;21.27;;;;;;;10.12;100.00;101494.63;12423032;23;20014;-93
2022/10/28 02:50:52;;;;;;;40.95;20.00;;;;;;;10.90;100.00;101628.47;12398916;23;20018;-88
2022/10/28 02:55:57;;;;;;;40.95;21.55;;;;;;;10.07;100.00;101509.09;12474934;23;20101;-88
2022/10/28 03:00:57;;;;;;;39.92;21.60;;;;;;;11.49;100.00;101711.19;12466316;23;20078;-88
2022/10/28 03:05:58;;;;;;;41.45;22.33;;;;;;;11.21;100.00;101675.22;12472428;23;20007;-88
2022/10/28 03:10:59;;;;;;;44.42;22.52;;;;;;;9.82;100.00;101467.19;12489831;23;20050;-88
2022/10/28 03:15:59;;;;;;;46.15;26.75;;;;;;;10.56;100.00;101590.69;12486822;23;20030;-88
2022/10/28 03:21:00;;;;;;;51.42;30.33;;;;;;;10.35;100.00;101534.28;12490639;23;20011;-88
2022/10/28 03:26:00;;;;;;;52.22;28.58;;;;;;;10.94;100.00;101670.16;12488194;23;20010;-88
2022/10/28 03:31:01;;;;;;;56.92;30.75;;;;;;;11.12;100.00;101655.47;12465078;23;20022;-88
2022/10/28 03:36:22;;;;;;;52.38;29.38;;;;;;;10.30;100.00;101557.88;12453961;23;20015;-88
2022/10/28 03:41:22;;;;;;;51.70;28.52;;;;;;;11.30;100.00;101701.34;12511801;23;20078;-87
2022/10/28 03:46:23;;;;;;;52.25;27.35;;;;;;;9.78;100.00;101422.81;12484165;23;20421;-94
2022/10/28 03:51:24;;;;;;;51.20;27.63;;;;;;;10.30;100.00;101529.50;12532890;23;20034;-94
2022/10/28 03:56:24;;;;;;;60.60;28.27;;;;;;;11.24;100.00;101666.47;12517194;23;20034;-94
2022/10/28 04:01:25;;;;;;;55.17;27.00;;;;;;;10.72;100.00;101586.41;12529646;23;20093;-93
2022/10/28 04:06:26;;;;;;;51.97;25.73;;;;;;;10.15;100.00;101455.63;12531358;23;20026;-94
2022/10/28 04:11:26;;;;;;;46.92;25.10;;;;;;;10.23;100.00;101466.28;12530506;23;20025;-94
2022/10/28 04:16:27;;;;;;;45.03;25.38;;;;;;;10.17;100.00;101481.00;12506380;23;20022;-94
2022/10/28 04:21:28;;;;;;;56.45;27.17;;;;;;;9.87;100.00;101479.13;12506831;23;21114;-94
2022/10/28 04:26:30;;;;;;;51.15;28.20;;;;;;;11.02;100.00;101664.31;12530449;23;20010;-94
2022/10/28 04:31:31;;;;;;;53.58;28.02;;;;;;;9.62;100.00;101390.47;12531159;23;20430;-94
2022/10/28 04:36:31;;;;;;;50.05;25.00;;;;;;;9.05;100.00;101342.28;12532687;23;20007;-94
2022/10/28 04:41:32;;;;;;;48.60;25.88;;;;;;;10.42;100.00;101551.56;12539620;23;20012;-94
2022/10/28 04:46:32;;;;;;;44.15;24.95;;;;;;;11.00;100.00;101666.47;12530762;23;20011;-94
2022/10/28 04:51:33;;;;;;;50.88;26.75;;;;;;;10.51;100.00;101602.44;12547321;23;20029;-93
2022/10/28 04:56:34;;;;;;;43.65;24.98;;;;;;;9.87;100.00;101470.03;12517921;23;20025;-93
2022/10/28 05:01:37;;;;;;;46.55;25.95;;;;;;;10.85;100.00;101679.84;12441807;23;20102;-94
2022/10/28 05:06:38;;;;;;;50.50;26.80;;;;;;;9.91;100.00;101520.75;12530504;23;20115;-93
2022/10/28 05:11:38;;;;;;;49.95;25.60;;;;;;;9.09;100.00;101332.50;12511141;23;20033;-88
2022/10/28 05:16:41;;;;;;;52.97;27.48;;;;;;;10.75;100.00;101603.31;12528773;23;20030;-93
2022/10/28 05:21:45;;;;;;;51.65;27.17;;;;;;;11.13;100.00;101678.34;12466728;23;20018;-87
2022/10/28 05:26:54;;;;;;;59.90;28.02;;;;;;;11.15;100.00;101646.69;12412807;23;20039;-88
2022/10/28 05:31:55;;;;;;;51.40;25.83;;;;;;;10.57;100.00;101584.97;12420801;23;20014;-88
2022/10/28 05:36:55;;;;;;;51.58;26.50;;;;;;;9.99;100.00;101448.91;12384361;23;20007;-93
2022/10/28 05:41:56;;;;;;;51.05;27.10;;;;;;;9.84;100.00;101459.53;12487056;23;20103;-89
2022/10/28 05:46:57;;;;;;;49.83;27.02;;;;;;;9.90;100.00;101453.91;12490460;23;20069;-94
2022/10/28 05:52:00;;;;;;;53.03;27.52;;;;;;;9.88;100.00;101467.06;12491525;23;20021;-94
2022/10/28 05:57:00;;;;;;;49.70;26.90;;;;;;;9.95;100.00;101457.88;12534909;23;20018;-94
2022/10/28 06:02:01;;;;;;;46.60;25.05;;;;;;;9.92;100.00;101436.31;12514560;23;20031;-94
2022/10/28 06:07:02;;;;;;;49.17;27.00;;;;;;;11.10;100.00;101672.22;12525889;23;20085;-94
2022/10/28 06:12:04;;;;;;;48.35;27.67;;;;;;;10.43;100.00;101564.22;12522744;23;20166;-94
2022/10/28 06:17:05;;;;;;;64.32;27.48;;;;;;;9.49;100.00;101422.59;12474684;23;20038;-94
2022/10/28 06:22:05;;;;;;;58.00;27.23;;;;;;;9.53;100.00;101391.88;12494516;23;20011;-94
2022/10/28 06:27:06;;;;;;;50.72;26.48;;;;;;;9.92;100.00;101453.66;12545055;23;20006;-94
2022/10/28 06:32:10;;;;;;;52.75;24.10;;;;;;;9.78;100.00;101414.56;12523707;23;20101;-94
2022/10/28 06:37:13;;;;;;;47.40;26.75;;;;;;;9.70;100.00;101381.91;12523102;23;20011;-94
2022/10/28 06:42:14;;;;;;;51.03;25.15;;;;;;;9.66;100.00;101358.69;12517217;23;20022;-93
2022/10/28 06:47:15;;;;;;;47.25;24.70;;;;;;;9.44;100.00;101320.75;12541996;23;20350;-94
2022/10/28 06:52:15;;;;;;;47.53;25.27;;;;;;;9.78;100.00;101378.81;12522934;23;20522;-94
2022/10/28 06:57:16;;;;;;;53.92;27.00;;;;;;;10.89;100.00;101482.69;12491624;23;20505;-94
2022/10/28 07:02:16;;;;;;;51.58;25.70;;;;;;;10.64;100.00;101471.94;12454467;23;20011;-93
2022/10/28 07:07:18;;;;;;;52.97;24.85;;;;;;;10.69;100.00;101461.91;12498197;23;20327;-93
2022/10/28 07:12:18;;;;;;;54.13;23.85;;;;;;;11.25;100.00;101544.13;12474993;23;20015;-93
2022/10/28 07:17:36;;;;;;;53.15;23.30;;;;;;;10.93;100.00;101472.88;12462758;23;20014;-94
2022/10/28 07:22:38;;;;;;;43.42;24.15;;;;;;;11.17;100.00;101472.84;12445187;23;20012;-91
2022/10/28 07:27:51;;;;;;;43.05;22.58;;;;;;;10.73;100.00;101381.53;12422789;23;20020;-92
2022/10/28 07:33:08;;;;;;;45.20;24.23;;;;;;;11.75;100.00;101546.25;12344946;23;20026;-94
2022/10/28 07:38:09;;;;;;;40.33;22.48;;;;;;;11.15;100.00;101426.22;12313191;23;20015;-93
2022/10/28 07:43:10;;;;;;;41.80;21.48;;;;;;;11.31;100.00;101428.22;12360692;23;20099;-94
2022/10/28 07:48:49;;;;;;;;;;;;;;;;;;;;;
2022/10/28 07:54:00;;;;;;;;;;;;;;;;;;;;;
2022/10/28 07:59:14;;;;;;;;;;;;;;;;;;;;;
2022/10/28 08:04:21;;;;;;;43.03;20.15;;;;;;;11.48;100.00;101406.19;12215422;23;20067;-93
2022/10/28 08:09:57;;;;;;;30.25;16.88;;;;;;;12.02;100.00;101479.47;12209127;23;20398;-94
2022/10/28 08:15:27;;;;;;;28.38;17.23;;;;;;;13.15;100.00;101597.25;12186522;23;20040;-94
2022/10/28 08:21:24;;;;;;;;;;;;;;;;;;;;;
2022/10/28 08:51:07;;;;;;;26.88;11.10;;;;;;;13.50;100.00;101423.53;12547397;23;20375;-91
2022/10/28 08:56:34;;;;;;;22.50;9.35;;;;;;;13.87;100.00;101450.47;12285442;23;20024;-90
2022/10/28 09:02:02;;;;;;;16.38;8.98;;;;;;;15.30;100.00;101627.31;12416842;23;20345;-90
2022/10/28 09:14:05;;;;;;;16.58;8.20;;;;;;;15.92;100.00;101634.84;12086455;23;20026;-91
2022/10/28 09:19:20;;;;;;;16.05;8.98;;;;;;;16.22;100.00;101649.94;12309529;23;20099;-90
2022/10/28 09:24:51;;;;;;;;;;;;;;;16.51;100.00;101630.00;12262394;23;20083;-90
2022/10/28 09:30:07;;;;;;;16.77;7.53;;;;;;;16.02;100.00;101506.31;12198567;23;19974;-92
2022/10/28 09:35:13;;;;;;;15.65;7.28;;;;;;;15.88;100.00;101450.47;12306064;23;20091;-91
2022/10/28 09:40:22;;;;;;;22.20;7.45;;;;;;;15.78;100.00;101417.13;12360487;23;20096;-92
2022/10/28 09:45:57;;;;;;;15.43;7.30;;;;;;;15.60;100.00;101400.97;12383480;23;20023;-90
2022/10/28 09:50:58;;;;;;;19.08;6.47;;;;;;;16.39;100.00;101490.47;12449142;23;20040;-91
2022/10/28 09:55:58;;;;;;;24.73;7.82;;;;;;;16.20;100.00;101437.41;12454488;23;20168;-91
2022/10/28 10:00:59;;;;;;;17.52;7.00;;;;;;;16.91;100.00;101533.84;12411888;23;20361;-90
2022/10/28 10:06:06;;;;;;;16.52;6.57;;;;;;;17.22;100.00;101561.56;12482441;23;20018;-92
2022/10/28 10:11:16;;;;;;;17.42;6.57;;;;;;;17.92;100.00;101608.94;12481188;23;20453;-90
2022/10/28 10:16:43;;;;;;;12.60;6.40;;;;;;;18.05;100.00;101608.34;12525844;23;20062;-90
2022/10/28 10:21:53;;;;;;;15.52;6.15;;;;;;;17.70;100.00;101542.47;12494403;23;20082;-90
2022/10/28 10:27:08;;;;;;;14.07;5.53;;;;;;;18.20;100.00;101587.91;12524063;23;20050;-89
2022/10/28 10:32:20;;;;;;;21.92;8.10;;;;;;;17.52;100.00;101477.94;12569614;23;20096;-89
2022/10/28 10:37:21;;;;;;;13.80;5.75;;;;;;;17.46;100.00;101462.38;12522945;23;20017;-89
2022/10/28 10:42:24;;;;;;;21.65;6.50;;;;;;;17.86;100.00;101532.94;12521470;23;20011;-89
2022/10/28 10:47:25;;;;;;;12.52;6.10;;;;;;;17.82;100.00;101523.47;12527455;23;20022;-89
2022/10/28 10:52:27;;;;;;;18.95;5.70;;;;;;;16.67;100.00;101348.13;12479268;23;20022;-90
2022/10/28 10:57:30;;;;;;;10.73;5.18;;;;;;;17.53;100.00;101459.31;12461325;23;20011;-89
2022/10/28 11:02:38;;;;;;;14.32;5.75;;;;;;;17.37;100.00;101402.88;12426287;23;20417;-90
2022/10/28 11:07:44;;;;;;;14.40;4.97;;;;;;;17.75;100.00;101419.88;12409091;23;20437;-89
2022/10/28 11:13:03;;;;;;;12.97;5.33;;;;;;;18.06;100.00;101472.63;12454480;23;20028;-89
2022/10/28 11:18:19;;;;;;;12.45;6.28;;;;;;;17.81;100.00;101395.63;12486633;23;20014;-89
2022/10/28 11:24:15;;;;;;;11.98;4.95;;;;;;;18.99;100.00;101534.81;12302361;23;20041;-91
2022/10/28 11:29:18;;;;;;;22.60;6.75;;;;;;;18.34;100.00;101410.50;12446238;23;20338;-90
2022/10/28 11:34:41;;;;;;;16.00;4.57;;;;;;;19.42;100.00;101582.38;12480626;23;20016;-91
2022/10/28 11:40:12;;;;;;;21.65;5.55;;;;;;;18.90;100.00;101466.88;12538185;23;20015;-91
2022/10/28 11:45:17;;;;;;;18.55;5.85;;;;;;;18.29;100.00;101357.63;12509386;23;20082;-91
2022/10/28 11:50:24;;;;;;;12.10;5.20;;;;;;;19.87;100.00;101579.34;12525282;23;20026;-92
2022/10/28 11:55:37;;;;;;;19.65;6.07;;;;;;;19.58;100.00;101417.41;12502967;23;20037;-87
2022/10/28 12:00:56;;;;;;;19.65;5.32;;;;;;;20.48;100.00;101532.84;12544245;23;20066;-89
2022/10/28 12:06:03;;;;;;;15.25;4.75;;;;;;;20.00;100.00;101446.41;12528518;23;20006;-88
2022/10/28 12:11:17;;;;;;;13.55;4.88;;;;;;;20.08;100.00;101466.09;12499155;23;20026;-90
2022/10/28 12:17:00;;;;;;;16.00;5.13;;;;;;;20.43;100.00;101518.94;12505029;23;20008;-91
2022/10/28 12:22:12;;;;;;;11.10;4.50;;;;;;;19.41;100.00;101360.13;12579998;23;20027;-89
2022/10/28 12:27:16;;;;;;;14.90;4.97;;;;;;;19.47;100.00;101349.69;12627249;23;20006;-89
2022/10/28 12:32:22;;;;;;;15.95;6.07;;;;;;;20.68;100.00;101521.31;12579604;23;20024;-88
2022/10/28 12:37:23;;;;;;;13.88;5.55;;;;;;;19.66;100.00;101355.28;12627368;23;20002;-88
2022/10/28 12:42:28;;;;;;;20.48;6.15;;;;;;;20.29;100.00;101471.34;12604526;23;20002;-84
2022/10/28 12:47:49;;;;;;;15.77;4.80;;;;;;;20.36;100.00;101503.41;12554083;23;20022;-90
2022/10/28 12:53:01;;;;;;;15.45;5.25;;;;;;;19.56;100.00;101390.59;12581848;23;20053;-90
2022/10/28 12:58:37;;;;;;;15.65;6.03;;;;;;;19.56;100.00;101415.75;12609507;23;20014;-91
2022/10/28 13:03:38;;;;;;;19.33;5.72;;;;;;;18.91;100.00;101309.47;12563587;23;20070;-91
2022/10/28 13:08:45;;;;;;;11.10;5.57;;;;;;;20.16;100.00;101489.75;12588959;23;20388;-89
2022/10/28 13:14:02;;;;;;;16.80;5.25;;;;;;;19.51;100.00;101403.81;12603088;23;20018;-89
2022/10/28 13:19:17;;;;;;;14.60;5.38;;;;;;;19.62;100.00;101454.78;12614697;23;20040;-88
2022/10/28 13:24:56;;;;;;;15.02;5.70;;;;;;;19.70;100.00;101518.31;12613633;23;20010;-89
2022/10/28 13:29:58;;;;;;;14.45;4.63;;;;;;;17.90;100.00;101230.41;12545925;23;20077;-89
2022/10/28 13:34:58;;;;;;;14.30;4.97;;;;;;;18.67;100.00;101380.06;12586468;23;20006;-90
2022/10/28 13:40:02;;;;;;;19.65;6.15;;;;;;;18.85;100.00;101364.53;12565125;23;20010;-89
2022/10/28 13:51:18;;;;;;;12.88;5.53;;;;;;;20.16;100.00;101498.13;12647218;23;20364;-89
2022/10/28 13:56:28;;;;;;;13.80;5.78;;;;;;;19.40;100.00;101349.25;12628217;23;20089;-89
2022/10/28 14:01:59;;;;;;;16.77;5.20;;;;;;;19.38;100.00;101320.81;12590199;23;20030;-90
2022/10/28 14:07:02;;;;;;;12.85;5.25;;;;;;;20.50;100.00;101474.63;12523876;23;20046;-90
2022/10/28 14:12:27;;;;;;;16.40;4.85;;;;;;;19.31;100.00;101343.53;12542188;23;20018;-89
2022/10/28 14:17:38;;;;;;;14.55;5.45;;;;;;;18.99;100.00;101392.53;12483060;23;20077;-90
2022/10/28 14:22:41;;;;;;;16.35;6.20;;;;;;;18.96;100.00;101418.25;12611041;23;20033;-89
2022/10/28 14:27:42;;;;;;;20.00;5.43;;;;;;;18.50;100.00;101340.63;12511752;23;20018;-89
2022/10/28 14:33:01;;;;;;;11.63;5.20;;;;;;;18.01;100.00;101298.00;12539887;23;20073;-93
2022/10/28 14:38:37;;;;;;;13.68;7.13;;;;;;;18.09;100.00;101386.50;12459427;23;20018;-92
2022/10/28 14:44:16;;;;;;;16.17;5.90;;;;;;;19.12;100.00;101564.84;12479101;23;20345;-92
2022/10/28 14:49:41;;;;;;;19.10;7.75;;;;;;;17.51;100.00;101345.47;12482345;23;20569;-93
2022/10/28 14:55:18;;;;;;;21.77;6.35;;;;;;;17.91;100.00;101395.59;12480032;23;20114;-92
2022/10/28 15:00:20;;;;;;;19.88;6.03;;;;;;;17.69;100.00;101415.47;12480035;23;20528;-90
2022/10/28 15:05:22;;;;;;;23.30;6.20;;;;;;;17.89;100.00;101459.94;12549915;23;20334;-90
2022/10/28 15:10:32;;;;;;;22.40;7.45;;;;;;;18.16;100.00;101519.91;12544608;23;20356;-90
2022/10/28 15:15:57;;;;;;;17.75;5.63;;;;;;;16.99;100.00;101346.91;12461179;23;20010;-91
2022/10/28 15:21:08;;;;;;;19.85;6.05;;;;;;;17.42;100.00;101411.19;12486503;23;20018;-90
2022/10/28 15:26:15;;;;;;;15.40;6.30;;;;;;;17.20;100.00;101394.06;12540052;23;20436;-90
2022/10/28 15:31:18;;;;;;;19.60;7.43;;;;;;;16.92;100.00;101338.03;12540429;23;20029;-90
2022/10/28 15:36:24;;;;;;;20.67;7.80;;;;;;;17.12;100.00;101440.84;12527079;23;20018;-90
2022/10/28 15:41:28;;;;;;;19.00;6.05;;;;;;;17.70;100.00;101517.41;12523147;23;20073;-89
2022/10/28 15:46:37;;;;;;;15.95;6.32;;;;;;;16.79;100.00;101397.03;12582854;23;21474;-90
2022/10/28 15:51:37;;;;;;;17.65;6.35;;;;;;;16.42;100.00;101395.44;12536099;23;20464;-89
2022/10/28 15:56:55;;;;;;;19.38;6.38;;;;;;;16.75;100.00;101441.22;12527653;23;20018;-92
2022/10/28 16:01:58;;;;;;;17.15;6.90;;;;;;;17.22;100.00;101564.34;12459100;23;20010;-91
2022/10/28 16:06:58;;;;;;;17.40;5.82;;;;;;;15.56;100.00;101336.03;12490890;23;20010;-89
2022/10/28 16:12:12;;;;;;;19.40;6.50;;;;;;;16.13;100.00;101457.16;12507595;23;20049;-90
2022/10/28 16:17:23;;;;;;;15.90;7.85;;;;;;;15.96;100.00;101443.53;12476883;23;20026;-89
2022/10/28 16:22:25;;;;;;;16.10;6.30;;;;;;;15.14;100.00;101347.06;12390366;23;20078;-90
2022/10/28 16:27:28;;;;;;;16.10;7.60;;;;;;;15.13;100.00;101333.47;12441897;23;20045;-89
2022/10/28 16:32:48;;;;;;;18.67;6.60;;;;;;;16.51;100.00;101593.88;12430292;23;20029;-89
2022/10/28 16:37:49;;;;;;;17.85;6.60;;;;;;;16.25;100.00;101587.47;12532610;23;20415;-88
2022/10/28 16:42:49;;;;;;;24.60;7.75;;;;;;;15.71;100.00;101533.16;12511855;23;20119;-88
2022/10/28 16:47:52;;;;;;;14.43;6.88;;;;;;;15.65;100.00;101548.13;12529686;23;20002;-90
2022/10/28 16:52:55;;;;;;;25.27;7.78;;;;;;;14.90;100.00;101445.69;12513449;23;20029;-91
2022/10/28 16:57:55;;;;;;;23.63;7.85;;;;;;;15.88;100.00;101608.75;12438179;23;20010;-89
2022/10/28 17:02:56;;;;;;;17.23;6.53;;;;;;;16.73;100.00;101744.59;12413826;23;20350;-90
2022/10/28 17:08:09;;;;;;;20.20;6.40;;;;;;;15.48;100.00;101548.31;12429282;23;20002;-91
2022/10/28 17:13:13;;;;;;;19.35;6.10;;;;;;;15.79;100.00;101592.88;12450047;23;20026;-89
2022/10/28 18:00:27;;;;;;;27.50;7.73;;;;;;;14.82;100.00;101534.91;12690342;23;20026;-91
2022/10/28 18:06:01;;;;;;;;;;;;;;;;;;;;;
2022/10/28 18:11:34;;;;;;;17.02;6.68;;;;;;;16.04;100.00;101723.50;12354233;23;20037;-89
2022/10/28 18:41:57;;;;;;;14.68;5.70;;;;;;;15.63;100.00;101661.34;12303473;23;20016;-90
2022/10/28 18:46:58;;;;;;;22.42;6.65;;;;;;;14.97;100.00;101606.28;12622487;23;20010;-90
2022/10/28 18:58:14;;;;;;;19.15;5.75;;;;;;;15.48;100.00;101710.09;12744805;23;20021;-90
2022/10/28 19:31:28;;;;;;;25.25;5.10;;;;;;;16.19;100.00;101869.16;12406681;23;20019;-89
2022/10/28 19:53:17;;;;;;;16.27;4.40;;;;;;;15.24;100.00;101869.72;12600082;23;20027;-89
2022/10/28 19:58:18;;;;;;;14.07;4.63;;;;;;;15.29;100.00;101864.19;12539825;23;20012;-89
2022/10/28 20:09:46;;;;;;;29.70;8.32;;;;;;;15.79;100.00;101965.75;12682756;23;20005;-93
2022/10/28 20:21:30;;;;;;;39.72;15.48;;;;;;;13.89;100.00;101719.53;12165255;23;20046;-88
2022/10/28 20:27:08;;;;;;;33.35;13.27;;;;;;;15.49;100.00;101953.22;12030390;23;20025;-88
2022/10/28 20:32:09;;;;;;;28.95;9.93;;;;;;;13.58;100.00;101678.69;12404651;23;20026;-88
2022/10/28 20:37:10;;;;;;;32.92;8.70;;;;;;;14.13;100.00;101808.72;12489978;23;20371;-87
2022/10/28 20:42:10;;;;;;;37.17;8.98;;;;;;;14.99;100.00;101984.78;12445727;23;20080;-88
2022/10/28 20:47:12;;;;;;;29.10;8.05;;;;;;;14.22;100.00;101850.69;12336493;23;20023;-88
2022/10/28 21:00:26;;;;;;;25.83;7.05;;;;;;;14.91;100.00;102002.72;12545945;23;20023;-90
2022/10/28 21:11:48;;;;;;;30.10;8.23;;;;;;;14.75;100.00;102016.63;12588108;23;20032;-90
2022/10/28 21:55:02;;;;;;;34.10;11.02;;;;;;;12.49;100.00;101855.59;12609718;23;20021;-90
2022/10/28 22:00:49;;;;;;;31.83;10.52;;;;;;;13.65;100.00;102033.53;12610837;23;20776;-91
2022/10/28 22:12:34;;;;;;;36.53;9.60;;;;;;;11.95;100.00;101826.47;12370821;23;20016;-92
2022/10/28 22:23:39;;;;;;;36.70;8.15;;;;;;;13.20;100.00;102070.19;12540096;23;20013;-92
2022/10/28 22:28:42;;;;;;;33.30;9.10;;;;;;;13.07;100.00;102083.19;12581448;23;20030;-91
2022/10/28 22:33:46;;;;;;;23.55;7.82;;;;;;;11.18;100.00;101766.66;12569510;23;20010;-91
2022/10/28 22:38:47;;;;;;;30.25;8.20;;;;;;;12.07;100.00;101951.50;12568368;23;20036;-91
2022/10/28 22:43:52;;;;;;;35.00;8.40;;;;;;;11.16;100.00;101821.16;12558596;23;20041;-90
2022/10/28 22:48:53;;;;;;;36.45;8.57;;;;;;;11.03;100.00;101798.25;12499790;23;20010;-89
2022/10/28 22:54:06;;;;;;;;;;;;;;;;;;;;;
2022/10/28 22:59:52;;;;;;;22.48;7.93;;;;;;;12.02;100.00;102025.91;12388847;23;20020;-90
2022/10/28 23:05:01;;;;;;;27.27;9.60;;;;;;;11.68;100.00;101957.41;12293997;23;20095;-89
2022/10/28 23:22:34;;;;;;;32.72;10.23;;;;;;;11.15;100.00;101910.44;12515364;23;20017;-89
2022/10/28 23:33:55;;;;;;;31.33;8.65;;;;;;;10.97;100.00;101892.84;12483400;23;20027;-89
2022/10/28 23:38:56;;;;;;;44.05;10.73;;;;;;;10.86;100.00;101879.88;12523791;23;20006;-89
2022/10/28 23:43:59;;;;;;;58.10;13.60;;;;;;;10.71;100.00;101852.75;12515954;23;20010;-89
2022/10/28 23:49:03;;;;;;;49.03;11.88;;;;;;;10.62;100.00;101849.44;12552493;23;20516;-89
2022/10/28 23:54:04;;;;;;;41.53;10.70;;;;;;;10.96;100.00;101934.44;12513179;23;20342;-88
2022/10/28 23:59:07;;;;;;;38.08;9.52;;;;;;;10.65;100.00;101903.22;12432595;23;20029;-89
